Latest Weather Observations for Keith West

IDS60801

Issued at 7:04 pm CDT Sunday 1 February 2015 (issued every 30 minutes, with the page automatically refreshed every 10 minutes)

About weather observations | Map of weather stations | Latest weather observations for SA | Other Formats
Station Details ID: 025557 Name: MUNKORA Lat: -36.11 Lon: 140.33 Height: 27.0 m
Data from the previous 72 hours. | See also: Recent months for locations in South Australia
Date/Time
CDT
Temp
°C
App
Temp
°C
Dew
Point
Rel
Hum
%
Delta-T
°C
Wind Press
QNH
hPa
Press
MSL
hPa
Rain
since 9 am
mm
Dir
 
Spd
km/h
Gust
km/h
Spd
kts
Gust
kts
01/07:00pm 21.3 15.1 6.0 37 7.7 S 28 43 15 23 1016.0 1015.9 0.0
01/06:30pm 22.0 15.0 5.8 35 8.1 S 32 41 17 22 1015.6 1015.5 0.0
01/06:00pm 23.0 16.3 5.4 32 8.8 S 30 37 16 20 1015.4 1015.3 0.0
01/05:30pm 23.7 18.4 6.9 34 8.7 SSE 24 37 13 20 1015.3 1015.2 0.0
01/05:00pm 22.0 16.3 6.7 37 7.8 S 26 39 14 21 1015.3 1015.2 0.0
01/04:30pm 22.9 17.7 7.1 36 8.2 S 24 33 13 18 1015.4 1015.3 0.0
01/04:00pm 23.5 18.3 7.2 35 8.5 S 24 41 13 22 1015.4 1015.3 0.0
01/03:30pm 23.0 17.7 6.7 35 8.4 SSE 24 39 13 21 1015.5 1015.4 0.0
01/03:00pm 22.8 17.3 5.7 33 8.6 S 24 39 13 21 1015.8 1015.7 0.0
01/02:30pm 21.6 15.8 6.3 37 7.7 S 26 39 14 21 1015.8 1015.7 0.0
01/02:00pm 22.3 16.9 6.5 36 8.1 S 24 37 13 20 1015.9 1015.8 0.0
01/01:30pm 20.9 15.9 6.4 39 7.3 S 22 33 12 18 1016.4 1016.3 0.0
01/01:00pm 20.7 15.5 7.3 42 6.9 SSE 24 32 13 17 1016.7 1016.6 0.0
01/12:30pm 19.7 14.6 7.8 46 6.1 SSE 24 33 13 18 1017.0 1016.9 0.0
01/12:00pm 18.8 14.1 7.9 49 5.6 SSE 22 33 12 18 1017.3 1017.2 0.0
01/11:30am 18.8 14.8 9.0 53 5.1 S 20 30 11 16 1017.4 1017.3 0.0
01/11:00am 17.4 12.6 8.8 57 4.4 SSE 24 35 13 19 1017.6 1017.5 0.0
01/10:30am 16.9 12.5 9.1 60 4.0 SSE 22 28 12 15 1017.6 1017.5 0.0
01/10:00am 16.8 12.7 10.2 65 3.5 SSE 22 32 12 17 1017.4 1017.3 0.0
01/09:30am 14.5 11.3 11.1 80 1.8 SSE 19 26 10 14 1017.6 1017.5 0.0
01/09:00am 15.2 11.1 10.0 71 2.7 SE 22 30 12 16 1017.4 1017.3 0.0
01/08:30am 15.5 11.3 9.8 69 3.0 SSE 22 35 12 19 1017.2 1017.1 0.0
01/08:00am 15.1 10.5 9.7 70 2.8 SSE 24 32 13 17 1016.7 1016.6 0.0
01/07:30am 14.9 10.8 8.6 66 3.2 S 20 28 11 15 1016.5 1016.4 0.0
01/07:00am 14.9 11.5 7.7 62 3.6 SSE 15 26 8 14 1016.2 1016.1 0.0
01/06:30am 14.8 11.0 7.6 62 3.6 SSE 17 26 9 14 1015.8 1015.7 0.0
01/06:00am 14.7 11.3 7.5 62 3.6 SSE 15 26 8 14 1015.4 1015.3 0.0
01/05:30am 14.6 10.8 7.4 62 3.5 SSE 17 24 9 13 1015.2 1015.1 0.0
01/05:00am 14.6 10.2 7.2 61 3.6 SSE 20 32 11 17 1015.2 1015.1 0.0
01/04:30am 14.7 11.2 7.3 61 3.6 SSE 15 24 8 13 1015.2 1015.1 0.0
01/04:00am 14.7 10.5 7.3 61 3.6 SSE 19 28 10 15 1015.1 1015.0 0.0
01/03:30am 14.7 10.2 7.0 60 3.8 SSE 20 32 11 17 1015.1 1015.0 0.0
01/03:00am 14.3 10.9 7.6 64 3.3 S 15 22 8 12 1015.5 1015.4 0.0
01/02:30am 12.7 10.0 7.4 70 2.6 S 11 13 6 7 1015.8 1015.7 0.0
01/02:00am 11.5 9.1 6.8 73 2.2 S 9 11 5 6 1015.8 1015.7 0.0
01/01:30am 11.8 9.3 6.5 70 2.5 SSE 9 13 5 7 1016.0 1015.9 0.0
01/01:00am 12.4 9.1 6.5 67 2.8 SSE 13 19 7 10 1016.0 1015.9 0.0
01/12:30am 12.9 9.2 6.5 65 3.1 SSE 15 20 8 11 1016.1 1016.0 0.0
01/12:00am 12.9 9.2 6.5 65 3.1 S 15 20 8 11 1016.2 1016.1 0.0
 
Date/Time
CDT
Temp
°C
App
Temp
°C
Dew
Point
Rel
Hum
%
Delta-T
°C
Wind Press
QNH
hPa
Press
MSL
hPa
Rain
since 9 am
mm
Dir
 
Spd
km/h
Gust
km/h
Spd
kts
Gust
kts
31/11:30pm 13.5 9.5 6.6 63 3.3 S 17 24 9 13 1016.3 1016.2 0.0
31/11:00pm 14.5 10.5 6.6 59 3.8 SSE 17 24 9 13 1016.1 1016.0 0.0
31/10:30pm 15.2 10.8 6.5 56 4.2 SSE 19 32 10 17 1016.0 1015.9 0.0
31/10:00pm 15.7 11.2 6.2 53 4.6 SSE 19 26 10 14 1015.8 1015.7 0.0
31/09:30pm 16.4 12.3 6.0 50 5.0 SSE 17 24 9 13 1015.4 1015.3 0.0
31/09:00pm 17.1 13.0 6.3 49 5.3 SSE 17 22 9 12 1014.9 1014.8 0.0
31/08:30pm 18.2 14.5 6.1 45 6.0 SSE 15 20 8 11 1014.7 1014.6 0.0
31/08:00pm 19.4 13.9 5.8 41 6.7 SSE 24 35 13 19 1014.5 1014.4 0.0
31/07:30pm 20.8 15.2 5.2 36 7.7 SSE 24 39 13 21 1014.0 1013.9 0.0
31/07:00pm 21.9 14.8 6.2 36 7.9 S 33 41 18 22 1013.6 1013.5 0.0
31/06:30pm 22.4 16.7 6.6 36 8.1 S 26 37 14 20 1013.2 1013.1 0.0
31/06:00pm 23.4 18.8 6.7 34 8.6 SSE 20 33 11 18 1013.2 1013.1 0.0
31/05:30pm 22.6 16.9 6.8 36 8.1 S 26 39 14 21 1013.2 1013.1 0.0
31/05:00pm 24.1 17.8 7.3 34 8.8 S 30 41 16 22 1013.2 1013.1 0.0
31/04:30pm 23.3 16.8 6.6 34 8.6 S 30 43 16 23 1013.3 1013.2 0.0
31/04:00pm 24.5 18.7 6.3 31 9.4 SSE 26 43 14 23 1012.9 1012.8 0.0
31/03:30pm 24.1 19.1 6.4 32 9.1 SSE 22 33 12 18 1013.3 1013.2 0.0
31/03:00pm 24.2 18.5 6.9 33 9.0 S 26 37 14 20 1013.6 1013.5 0.0
31/02:30pm 23.2 17.7 6.1 33 8.7 SSE 24 44 13 24 1013.9 1013.8 0.0
31/02:00pm 23.0 17.6 6.3 34 8.5 S 24 48 13 26 1014.1 1014.0 0.0
31/01:30pm 21.4 16.0 6.5 38 7.6 SSW 24 35 13 19 1014.5 1014.4 0.0
31/01:00pm 22.0 17.3 7.8 40 7.4 S 22 37 12 20 1014.9 1014.8 0.0
31/12:30pm 20.2 15.5 7.9 45 6.4 SSE 22 32 12 17 1015.4 1015.3 0.0
31/12:00pm 19.4 15.4 8.4 49 5.7 SSE 19 26 10 14 1015.7 1015.6 0.0
31/11:30am 19.3 15.3 8.3 49 5.7 SSE 19 28 10 15 1015.9 1015.8 0.0
31/11:00am 18.3 14.2 7.7 50 5.4 SE 19 32 10 17 1016.2 1016.1 0.0
31/10:30am 18.6 14.7 8.6 52 5.2 SSE 19 26 10 14 1016.1 1016.0 0.0
31/10:00am 18.1 14.6 8.9 55 4.8 SSE 17 26 9 14 1016.1 1016.0 0.0
31/09:30am 17.8 14.3 8.9 56 4.6 SSE 17 28 9 15 1016.0 1015.9 0.0
31/09:00am 17.4 14.1 9.6 60 4.1 SSE 17 26 9 14 1016.2 1016.1 0.0
31/08:30am 15.8 13.2 10.8 72 2.7 S 15 22 8 12 1016.1 1016.0 0.0
31/08:00am 13.8 12.0 11.0 83 1.5 S 11 17 6 9 1015.7 1015.6 0.0
31/07:30am 12.1 10.1 10.0 87 1.1 SSW 11 13 6 7 1015.5 1015.4 0.0
31/07:00am 10.6 8.7 9.2 91 0.7 S 9 11 5 6 1014.9 1014.8 0.0
31/06:30am 9.6 7.9 8.4 92 0.6 SSE 7 11 4 6 1014.5 1014.4 0.0
31/06:00am 9.3 7.1 7.9 91 0.7 S 9 9 5 5 1014.4 1014.3 0.0
31/05:30am 9.4 7.2 8.0 91 0.7 SSE 9 11 5 6 1014.3 1014.2 0.0
31/05:00am 9.6 7.8 8.0 90 0.8 S 7 9 4 5 1014.7 1014.6 0.0
31/04:30am 9.9 7.0 8.0 88 0.9 S 13 15 7 8 1014.6 1014.5 0.0
31/04:00am 10.0 7.4 7.9 87 1.0 S 11 13 6 7 1014.5 1014.4 0.0
31/03:30am 11.1 9.4 8.3 83 1.4 SSE 7 11 4 6 1014.6 1014.5 0.0
31/03:00am 11.7 9.7 8.6 81 1.5 SSE 9 17 5 9 1014.5 1014.4 0.0
31/02:30am 11.5 9.2 7.6 77 1.9 SSE 9 13 5 7 1014.4 1014.3 0.0
31/02:00am 12.4 10.2 7.7 73 2.3 SSE 9 13 5 7 1014.6 1014.5 0.0
31/01:30am 12.8 10.5 7.5 70 2.6 SSE 9 13 5 7 1014.8 1014.7 0.0
31/01:00am 13.6 10.1 7.4 66 3.0 SSE 15 19 8 10 1014.7 1014.6 0.0
31/12:30am 14.1 10.6 7.4 64 3.3 SE 15 19 8 10 1014.7 1014.6 0.0
31/12:00am 14.6 10.8 7.4 62 3.5 SE 17 20 9 11 1014.7 1014.6 0.0
 
Date/Time
CDT
Temp
°C
App
Temp
°C
Dew
Point
Rel
Hum
%
Delta-T
°C
Wind Press
QNH
hPa
Press
MSL
hPa
Rain
since 9 am
mm
Dir
 
Spd
km/h
Gust
km/h
Spd
kts
Gust
kts
30/11:30pm 15.0 11.5 7.3 60 3.8 SSE 15 24 8 13 1014.7 1014.6 0.0
30/11:00pm 15.9 11.0 6.9 55 4.4 SSE 22 33 12 18 1014.7 1014.6 0.0
30/10:30pm 16.8 12.5 6.9 52 4.9 SSE 19 26 10 14 1014.5 1014.4 0.0
30/10:00pm 17.8 12.6 7.2 50 5.3 SSE 24 35 13 19 1014.4 1014.3 0.0
30/09:30pm 18.4 13.6 7.5 49 5.5 SSE 22 35 12 19 1014.3 1014.2 0.0
30/09:00pm 18.9 13.4 7.4 47 5.8 S 26 33 14 18 1013.8 1013.7 0.0
30/08:30pm 19.8 13.1 7.5 45 6.3 S 32 43 17 23 1013.1 1013.0 0.0
30/08:00pm 21.3 14.0 7.2 40 7.2 S 35 44 19 24 1012.7 1012.6 0.0
30/07:30pm 22.9 16.1 7.1 36 8.2 S 32 43 17 23 1012.4 1012.3 0.0
30/07:00pm 24.6 20.0 6.4 31 9.4 WSW 20 39 11 21 1012.0 1011.9 0.0
30/06:30pm 24.8 18.9 7.4 33 9.2 SW 28 35 15 19 1012.3 1012.2 0.0
30/06:00pm 25.4 19.7 6.6 30 9.8 SW 26 39 14 21 1012.3 1012.2 0.0
30/05:30pm 25.6 20.7 6.8 30 9.8 SSW 22 37 12 20 1012.4 1012.3 0.0
30/05:00pm 26.1 22.0 2.1 21 11.6 SSE 13 22 7 12 1012.8 1012.7 0.0
30/04:30pm 25.8 21.6 1.8 21 11.5 SE 13 28 7 15 1012.9 1012.8 0.0
30/04:00pm 26.0 21.7 3.3 23 11.2 SSE 15 28 8 15 1013.1 1013.0 0.0
30/03:30pm 25.7 21.0 3.0 23 11.1 S 17 26 9 14 1013.5 1013.4 0.0
30/03:00pm 25.6 21.4 3.6 24 10.9 SSW 15 28 8 15 1013.9 1013.8 0.0
30/02:30pm 24.3 20.7 3.0 25 10.3 SSW 11 22 6 12 1014.4 1014.3 0.0
30/02:00pm 24.6 21.4 3.3 25 10.4 S 9 24 5 13 1014.8 1014.7 0.0
30/01:30pm 24.2 19.7 2.4 24 10.4 SSE 15 26 8 14 1015.2 1015.1 0.0
30/01:00pm 23.8 20.0 3.7 27 9.8 SE 13 24 7 13 1015.8 1015.7 0.0
30/12:30pm 23.6 20.3 4.5 29 9.5 SE 11 17 6 9 1016.3 1016.2 0.0
30/12:00pm 22.1 18.6 3.7 30 8.9 SE 11 22 6 12 1016.7 1016.6 0.0
30/11:30am 22.6 20.0 6.0 34 8.4 NNE 9 20 5 11 1017.0 1016.9 0.0
30/11:00am 20.4 17.7 5.6 38 7.3 ENE 9 17 5 9 1017.4 1017.3 0.0
30/10:30am 19.9 17.1 7.0 43 6.5 E 11 24 6 13 1017.7 1017.6 0.0
30/10:00am 19.1 15.7 7.5 47 5.9 E 15 26 8 14 1017.9 1017.8 0.0
30/09:30am 18.3 15.0 8.0 51 5.3 ESE 15 24 8 13 1018.0 1017.9 0.0
30/09:00am 17.2 14.0 8.4 56 4.5 ESE 15 20 8 11 1018.2 1018.1 0.0
30/08:30am 15.8 12.6 8.5 62 3.7 SE 15 20 8 11 1018.1 1018.0 0.0
30/08:00am 13.9 10.7 8.3 69 2.8 SE 15 20 8 11 1018.1 1018.0 0.0
30/07:30am 11.8 10.0 7.9 77 1.9 SSE 7 11 4 6 1017.9 1017.8 0.0
30/07:00am 10.2 8.5 7.4 83 1.3 SSE 6 9 3 5 1017.6 1017.5 0.0
30/06:30am 8.6 6.4 6.2 85 1.1 SSE 7 9 4 5 1017.2 1017.1 0.0
30/06:00am 9.4 6.9 6.5 82 1.3 SSE 9 13 5 7 1016.9 1016.8 0.0
30/05:30am 10.7 8.3 6.8 77 1.8 SSE 9 13 5 7 1016.7 1016.6 0.0
30/05:00am 10.7 8.2 6.6 76 1.9 SSE 9 11 5 6 1016.6 1016.5 0.0
30/04:30am 11.2 8.3 6.7 74 2.1 SE 11 13 6 7 1016.3 1016.2 0.0
30/04:00am 11.8 8.9 6.7 71 2.4 SSE 11 15 6 8 1016.3 1016.2 0.0
30/03:30am 12.1 9.6 6.6 69 2.6 SE 9 13 5 7 1016.4 1016.3 0.0
30/03:00am 13.0 10.5 6.6 65 3.1 SE 9 15 5 8 1016.4 1016.3 0.0
30/02:30am 13.5 10.6 6.4 62 3.4 SE 11 17 6 9 1016.4 1016.3 0.0
30/02:00am 14.2 10.9 6.3 59 3.8 SE 13 19 7 10 1016.3 1016.2 0.0
30/01:30am 15.0 10.9 6.3 56 4.2 SE 17 24 9 13 1016.3 1016.2 0.0
30/01:00am 15.6 11.4 5.8 52 4.7 SE 17 22 9 12 1016.4 1016.3 0.0
30/12:30am 16.3 11.4 5.3 48 5.2 SE 20 28 11 15 1016.4 1016.3 0.0
30/12:00am 17.1 11.8 4.8 44 5.8 SE 22 35 12 19 1016.5 1016.4 0.0
 
Date/Time
CDT
Temp
°C
App
Temp
°C
Dew
Point
Rel
Hum
%
Delta-T
°C
Wind Press
QNH
hPa
Press
MSL
hPa
Rain
since 9 am
mm
Dir
 
Spd
km/h
Gust
km/h
Spd
kts
Gust
kts
29/11:30pm 17.7 13.1 3.9 40 6.5 SE 17 26 9 14 1016.6 1016.5 0.0
29/11:00pm 18.8 13.2 3.4 36 7.2 SE 22 30 12 16 1016.6 1016.5 0.0
29/10:30pm 20.0 14.9 4.1 35 7.6 SE 20 28 11 15 1016.5 1016.4 0.0
29/10:00pm 21.4 16.5 5.3 35 8.0 SE 20 32 11 17 1016.0 1015.9 0.0
29/09:30pm 22.2 17.4 5.6 34 8.3 SE 20 28 11 15 1015.7 1015.6 0.0
29/09:00pm 22.7 18.9 3.8 29 9.2 SE 13 20 7 11 1015.3 1015.2 0.0
29/08:30pm 23.6 19.4 4.0 28 9.6 SE 15 20 8 11 1015.0 1014.9 0.0
29/08:00pm 25.3 20.6 3.3 24 10.8 SE 17 26 9 14 1014.8 1014.7 0.0
29/07:30pm 26.7 21.8 3.9 23 11.4 SE 19 26 10 14 1014.5 1014.4 0.0

Other Formats:

Comma delimited format used in spreadsheet applications
http://www.bom.gov.au/fwo/IDS60801/IDS60801.95815.axf

JavaScript Object Notation format (JSON) in row-major order
http://www.bom.gov.au/fwo/IDS60801/IDS60801.95815.json